createdAt,value
2019-05-12T00:01:48.122Z,7.47
2019-05-12T00:04:19.279Z,7.30
2019-05-12T00:06:50.065Z,6.60
2019-05-12T00:09:20.879Z,7.70
2019-05-12T00:11:51.797Z,7.70
2019-05-12T00:14:22.561Z,6.60
2019-05-12T00:16:53.335Z,6.87
2019-05-12T00:19:24.124Z,6.17
2019-05-12T00:21:54.902Z,5.57
2019-05-12T00:24:27.832Z,4.80
2019-05-12T00:27:00.268Z,4.70
2019-05-12T00:29:31.128Z,4.40
2019-05-12T00:32:01.904Z,4.37
2019-05-12T00:34:32.672Z,4.80
2019-05-12T00:37:03.521Z,4.70
2019-05-12T00:39:34.294Z,5.20
2019-05-12T00:42:05.081Z,4.70
2019-05-12T00:44:35.946Z,5.27
2019-05-12T00:47:08.195Z,4.67
2019-05-12T00:49:39.148Z,4.63
2019-05-12T00:52:09.920Z,5.10
2019-05-12T00:54:40.699Z,4.93
2019-05-12T00:57:11.515Z,5.53
2019-05-12T00:59:42.389Z,5.23
2019-05-12T01:02:13.167Z,5.70
2019-05-12T01:04:43.971Z,5.67
2019-05-12T01:07:14.735Z,5.10
2019-05-12T01:09:49.122Z,6.23
2019-05-12T01:12:20.098Z,5.60
2019-05-12T01:14:50.885Z,6.00
2019-05-12T01:17:21.722Z,4.60
2019-05-12T01:19:52.494Z,5.20
2019-05-12T01:22:23.261Z,5.57
2019-05-12T01:24:54.119Z,5.03
2019-05-12T01:27:24.914Z,5.40
2019-05-12T01:29:58.016Z,4.93
2019-05-12T01:32:30.385Z,5.00
2019-05-12T01:35:01.170Z,5.42
2019-05-12T01:37:31.970Z,5.10
2019-05-12T01:40:05.516Z,4.60
2019-05-12T01:42:38.216Z,4.78
2019-05-12T01:45:09.585Z,4.85
2019-05-12T01:47:40.390Z,5.20
2019-05-12T01:50:11.661Z,4.60
2019-05-12T01:52:42.459Z,4.47
2019-05-12T01:55:13.262Z,4.87
2019-05-12T01:57:44.125Z,5.37
2019-05-12T02:00:18.271Z,4.40
2019-05-12T02:02:49.126Z,4.80
2019-05-12T02:05:19.923Z,5.00
2019-05-12T02:07:52.639Z,5.00
2019-05-12T02:10:23.542Z,4.80
2019-05-12T02:12:54.445Z,4.87
2019-05-12T02:15:27.678Z,5.30
2019-05-12T02:17:58.886Z,5.17
2019-05-12T02:20:30.062Z,4.70
2019-05-12T02:23:00.850Z,5.47
2019-05-12T02:25:31.658Z,5.10
2019-05-12T02:28:02.432Z,5.30
2019-05-12T02:30:33.199Z,4.80
2019-05-12T02:33:05.160Z,5.07
2019-05-12T02:35:36.248Z,4.78
2019-05-12T02:38:07.078Z,4.90
2019-05-12T02:40:37.856Z,4.60
2019-05-12T02:43:08.699Z,4.77
2019-05-12T02:45:39.514Z,4.20
2019-05-12T02:48:10.314Z,4.20
2019-05-12T02:50:41.175Z,4.47
2019-05-12T02:53:14.481Z,5.10
2019-05-12T02:55:45.960Z,4.30
2019-05-12T02:58:17.953Z,4.35
2019-05-12T03:00:48.946Z,4.28
2019-05-12T03:03:20.135Z,4.67
2019-05-12T03:05:54.675Z,4.40
2019-05-12T03:08:25.920Z,4.80
2019-05-12T03:10:57.175Z,4.45
2019-05-12T03:13:27.987Z,4.80
2019-05-12T03:15:58.738Z,5.40
2019-05-12T03:18:29.538Z,5.70
2019-05-12T03:21:00.281Z,5.40
2019-05-12T03:23:31.054Z,5.80
2019-05-12T03:26:04.928Z,5.23
2019-05-12T03:28:35.531Z,5.80
2019-05-12T03:31:08.305Z,6.40
2019-05-12T03:33:43.479Z,5.45
2019-05-12T03:36:17.260Z,6.08
2019-05-12T03:38:45.068Z,6.10
2019-05-12T03:41:15.978Z,5.95
2019-05-12T03:43:46.758Z,6.43
2019-05-12T03:46:17.527Z,6.00
2019-05-12T03:48:48.329Z,6.00
2019-05-12T03:51:19.116Z,6.70
2019-05-12T03:53:49.864Z,6.40
2019-05-12T03:56:20.883Z,6.10
2019-05-12T03:58:54.144Z,7.20
2019-05-12T04:01:25.512Z,6.50
2019-05-12T04:03:56.685Z,6.58
2019-05-12T04:06:27.447Z,6.70
2019-05-12T04:09:00.013Z,6.37
2019-05-12T04:11:30.943Z,6.53
2019-05-12T04:14:05.478Z,6.90
2019-05-12T04:16:36.632Z,6.67
2019-05-12T04:19:07.629Z,7.08
2019-05-12T04:21:38.402Z,6.40
2019-05-12T04:24:09.178Z,7.27
2019-05-12T04:26:39.941Z,6.30
2019-05-12T04:29:10.741Z,6.70
2019-05-12T04:31:44.110Z,6.07
2019-05-12T04:34:18.671Z,6.25
2019-05-12T04:36:46.874Z,7.15
2019-05-12T04:39:17.644Z,6.47
2019-05-12T04:41:48.406Z,7.67
2019-05-12T04:44:19.188Z,6.57
2019-05-12T04:46:49.958Z,6.40
2019-05-12T04:49:20.728Z,6.27
2019-05-12T04:51:54.371Z,5.70
2019-05-12T04:54:24.825Z,6.67
2019-05-12T04:56:55.754Z,6.65
2019-05-12T04:59:26.547Z,6.53
2019-05-12T05:01:57.311Z,6.60
2019-05-12T05:04:28.087Z,6.77
2019-05-12T05:06:58.876Z,6.30
2019-05-12T05:09:29.672Z,6.43
2019-05-12T05:12:00.474Z,6.07
2019-05-12T05:14:33.851Z,6.23
2019-05-12T05:17:05.509Z,6.53
2019-05-12T05:19:37.045Z,7.45
2019-05-12T05:22:07.824Z,6.17
2019-05-12T05:24:38.615Z,6.90
2019-05-12T05:27:09.391Z,6.10
2019-05-12T05:29:40.412Z,7.03
2019-05-12T05:32:11.183Z,6.20
2019-05-12T05:34:46.013Z,6.60
2019-05-12T05:37:14.746Z,6.95
2019-05-12T05:39:49.669Z,6.20
2019-05-12T05:42:22.220Z,6.53
2019-05-12T05:44:50.895Z,6.70
2019-05-12T05:47:25.636Z,7.40
2019-05-12T05:49:54.400Z,6.42
2019-05-12T05:52:33.105Z,7.43
2019-05-12T05:54:57.851Z,6.65
2019-05-12T05:57:29.885Z,6.47
2019-05-12T06:00:00.707Z,6.20
2019-05-12T06:02:39.941Z,6.97
2019-05-12T06:05:04.868Z,7.03
2019-05-12T06:07:39.063Z,6.10
2019-05-12T06:10:08.346Z,5.72
2019-05-12T06:12:40.475Z,6.40
2019-05-12T06:15:13.559Z,6.97
2019-05-12T06:17:44.538Z,6.08
2019-05-12T06:20:15.366Z,5.90
2019-05-12T06:22:48.717Z,6.40
2019-05-12T06:25:18.818Z,7.87
2019-05-12T06:27:51.149Z,5.67
2019-05-12T06:30:24.272Z,6.20
2019-05-12T06:32:55.020Z,5.92
2019-05-12T06:35:25.792Z,5.73
2019-05-12T06:38:01.519Z,5.30
2019-05-12T06:40:30.828Z,5.85
2019-05-12T06:43:04.376Z,5.15
2019-05-12T06:45:41.795Z,5.15
2019-05-12T06:48:08.184Z,4.90
2019-05-12T06:50:39.518Z,5.10
2019-05-12T06:53:10.329Z,5.15
2019-05-12T06:55:43.137Z,5.07
2019-05-12T06:58:14.139Z,5.17
2019-05-12T07:00:46.028Z,6.35
2019-05-12T07:03:19.529Z,5.05
2019-05-12T07:06:09.306Z,5.00
2019-05-12T07:08:40.635Z,5.10
2019-05-12T07:11:14.337Z,6.60
2019-05-12T07:13:46.327Z,5.58
2019-05-12T07:16:23.175Z,5.35
2019-05-12T07:18:54.040Z,5.85
2019-05-12T07:21:27.142Z,5.42
2019-05-12T07:24:00.563Z,5.85
2019-05-12T07:26:30.940Z,5.50
2019-05-12T07:29:04.236Z,5.35
2019-05-12T07:31:34.486Z,5.70
2019-05-12T07:34:07.955Z,6.20
2019-05-12T07:36:41.432Z,7.00
2019-05-12T07:39:13.675Z,5.87
2019-05-12T07:41:50.986Z,5.58
2019-05-12T07:44:21.996Z,5.50
2019-05-12T07:46:54.079Z,5.90
2019-05-12T07:49:33.968Z,5.97
2019-05-12T07:51:59.465Z,5.67
2019-05-12T07:54:37.719Z,5.80
2019-05-12T07:57:11.498Z,6.37
2019-05-12T07:59:40.753Z,5.90
2019-05-12T08:02:08.332Z,7.30
2019-05-12T08:04:44.042Z,5.40
2019-05-12T08:07:19.799Z,6.40
2019-05-12T08:09:47.740Z,6.00
2019-05-12T08:12:20.920Z,6.10
2019-05-12T08:14:51.209Z,5.40
2019-05-12T08:17:24.491Z,6.20
2019-05-12T08:19:54.796Z,5.67
2019-05-12T08:22:29.269Z,5.60
2019-05-12T08:24:58.282Z,5.90
2019-05-12T08:27:30.131Z,5.60
2019-05-12T08:30:02.982Z,6.03
2019-05-12T08:32:33.939Z,5.35
2019-05-12T08:35:05.596Z,6.00
2019-05-12T08:37:36.400Z,5.80
2019-05-12T08:40:07.770Z,6.27
2019-05-12T08:42:38.749Z,6.10
2019-05-12T08:45:15.184Z,5.97
2019-05-12T08:47:44.066Z,6.50
2019-05-12T08:50:14.901Z,5.53
2019-05-12T08:52:45.698Z,6.40
2019-05-12T08:55:16.998Z,6.53
2019-05-12T08:57:49.716Z,6.60
2019-05-12T09:00:34.219Z,6.57
2019-05-12T09:03:05.311Z,6.43
2019-05-12T09:05:38.463Z,7.60
2019-05-12T09:08:09.855Z,6.60
2019-05-12T09:10:40.640Z,7.23
2019-05-12T09:13:11.548Z,8.77
2019-05-12T09:15:49.184Z,8.20
2019-05-12T09:18:19.984Z,7.93
2019-05-12T09:20:55.149Z,8.03
2019-05-12T09:23:23.982Z,9.03
2019-05-12T09:25:57.148Z,8.80
2019-05-12T09:28:27.592Z,8.40
2019-05-12T09:30:58.352Z,8.80
2019-05-12T09:33:31.842Z,9.50
2019-05-12T09:36:04.337Z,8.57
2019-05-12T09:38:35.323Z,9.37
2019-05-12T09:41:06.112Z,9.53
2019-05-12T09:43:40.302Z,9.13
2019-05-12T09:46:09.606Z,9.77
2019-05-12T09:48:45.666Z,9.60
2019-05-12T09:51:13.731Z,9.47
2019-05-12T09:53:50.947Z,10.30
2019-05-12T09:56:18.467Z,10.30
2019-05-12T09:59:00.778Z,9.97
2019-05-12T10:01:24.053Z,10.43
2019-05-12T10:03:54.801Z,10.73
2019-05-12T10:06:25.577Z,10.60
2019-05-12T10:08:56.360Z,10.60
2019-05-12T10:11:27.146Z,10.27
2019-05-12T10:14:00.322Z,11.00
2019-05-12T10:16:30.616Z,11.00
2019-05-12T10:19:03.772Z,10.80
2019-05-12T10:21:36.034Z,11.30
2019-05-12T10:24:06.757Z,11.10
2019-05-12T10:26:41.100Z,10.97
2019-05-12T10:29:17.665Z,11.60
2019-05-12T10:31:44.512Z,11.37
2019-05-12T10:34:23.599Z,10.20
2019-05-12T10:36:54.057Z,11.70
2019-05-12T10:39:25.020Z,11.63
2019-05-12T10:41:55.781Z,11.53
2019-05-12T10:44:29.879Z,11.30
2019-05-12T10:47:01.151Z,10.83
2019-05-12T10:49:33.757Z,10.20
2019-05-12T10:52:04.669Z,12.20
2019-05-12T10:54:35.567Z,11.60
2019-05-12T10:57:08.411Z,12.30
2019-05-12T10:59:45.200Z,11.20
2019-05-12T11:02:13.872Z,11.60
2019-05-12T11:04:44.545Z,11.43
2019-05-12T11:07:15.330Z,12.00
2019-05-12T11:09:46.112Z,16.23
2019-05-12T11:12:19.096Z,12.13
2019-05-12T11:14:49.599Z,11.97
2019-05-12T11:17:20.383Z,11.90
2019-05-12T11:19:53.673Z,12.07
2019-05-12T11:22:23.821Z,13.10
2019-05-12T11:24:55.831Z,11.87
2019-05-12T11:27:26.687Z,11.70
2019-05-12T11:29:57.467Z,11.00
2019-05-12T11:32:28.935Z,11.70
2019-05-12T11:35:01.109Z,10.93
2019-05-12T11:37:33.826Z,12.00
2019-05-12T11:40:04.651Z,11.83
2019-05-12T11:42:36.478Z,11.73
2019-05-12T11:45:07.368Z,11.37
2019-05-12T11:47:38.154Z,10.80
2019-05-12T11:50:10.110Z,10.90
2019-05-12T11:52:41.038Z,11.50
2019-05-12T11:55:13.475Z,10.83
2019-05-12T11:57:44.269Z,10.70
2019-05-12T12:00:17.162Z,10.97
2019-05-12T12:02:47.937Z,11.43
2019-05-12T12:05:33.836Z,10.23
2019-05-12T12:08:04.810Z,11.50
2019-05-12T12:10:39.696Z,10.37
2019-05-12T12:13:08.327Z,11.20
2019-05-12T12:15:39.108Z,11.23
2019-05-12T12:18:15.086Z,11.50
2019-05-12T12:20:44.255Z,11.10
2019-05-12T12:23:15.228Z,11.17
2019-05-12T12:25:48.689Z,10.67
2019-05-12T12:28:18.725Z,10.27
2019-05-12T12:30:52.495Z,10.37
2019-05-12T12:33:23.493Z,11.03
2019-05-12T12:36:00.597Z,11.17
2019-05-12T12:38:29.107Z,11.10
2019-05-12T12:40:59.902Z,10.87
2019-05-12T12:43:30.755Z,10.53
2019-05-12T12:46:10.622Z,11.93
2019-05-12T12:48:38.896Z,9.87
2019-05-12T12:51:09.665Z,10.23
2019-05-12T12:53:40.449Z,10.63
2019-05-12T12:56:16.190Z,10.30
2019-05-12T12:58:46.869Z,10.50
2019-05-12T13:01:28.731Z,11.20
2019-05-12T13:03:59.362Z,10.47
2019-05-12T13:06:30.018Z,10.40
2019-05-12T13:09:00.779Z,10.70
2019-05-12T13:11:34.791Z,10.57
2019-05-12T13:14:04.277Z,10.80
2019-05-12T13:16:35.064Z,11.03
2019-05-12T13:19:12.405Z,10.10
2019-05-12T13:21:38.532Z,10.20
2019-05-12T13:24:09.332Z,9.33
2019-05-12T13:26:40.127Z,9.43
2019-05-12T13:29:13.249Z,9.80
2019-05-12T13:31:46.345Z,9.73
2019-05-12T13:34:16.266Z,10.40
2019-05-12T13:36:47.047Z,10.73
2019-05-12T13:39:17.823Z,9.77
2019-05-12T13:41:50.373Z,10.10
2019-05-12T13:44:24.017Z,10.27
2019-05-12T13:46:58.832Z,10.27
2019-05-12T13:49:30.182Z,9.70
2019-05-12T13:52:00.103Z,10.37
2019-05-12T13:54:30.922Z,10.33
2019-05-12T13:57:03.693Z,10.13
2019-05-12T13:59:34.405Z,10.13
2019-05-12T14:02:05.205Z,10.47
2019-05-12T14:04:36.013Z,9.87
2019-05-12T14:07:09.388Z,9.53
2019-05-12T14:09:40.588Z,10.43
2019-05-12T14:12:15.075Z,9.87
2019-05-12T14:14:45.842Z,10.60
2019-05-12T14:17:17.697Z,9.90
2019-05-12T14:19:54.388Z,11.07
2019-05-12T14:22:26.442Z,8.97
2019-05-12T14:24:57.388Z,9.83
2019-05-12T14:27:28.826Z,10.27
2019-05-12T14:30:05.863Z,10.30
2019-05-12T14:32:33.628Z,9.63
2019-05-12T14:35:05.416Z,10.77
2019-05-12T14:37:40.173Z,11.30
2019-05-12T14:40:09.109Z,10.60
2019-05-12T14:42:40.078Z,9.17
2019-05-12T14:45:13.823Z,10.33
2019-05-12T14:47:44.563Z,9.57
2019-05-12T14:50:15.349Z,10.23
2019-05-12T14:52:50.057Z,9.60
2019-05-12T14:55:18.896Z,9.53
2019-05-12T14:57:49.700Z,9.30
2019-05-12T15:00:21.925Z,9.43
2019-05-12T15:02:53.992Z,10.00
2019-05-12T15:05:27.501Z,10.40
2019-05-12T15:08:00.365Z,9.60
2019-05-12T15:10:30.255Z,10.23
2019-05-12T15:13:04.778Z,9.80
2019-05-12T15:15:35.546Z,10.13
2019-05-12T15:18:10.069Z,9.53
2019-05-12T15:20:41.591Z,10.30
2019-05-12T15:23:14.134Z,9.97
2019-05-12T15:25:44.466Z,9.30
2019-05-12T15:28:15.241Z,9.80
2019-05-12T15:30:46.013Z,9.53
2019-05-12T15:33:16.810Z,9.30
2019-05-12T15:35:47.814Z,9.53
2019-05-12T15:38:18.601Z,9.27
2019-05-12T15:40:49.364Z,9.77
2019-05-12T15:43:20.154Z,9.50
2019-05-12T15:45:55.240Z,9.80
2019-05-12T15:48:26.168Z,9.40
2019-05-12T15:51:03.944Z,9.30
2019-05-12T15:53:29.249Z,10.00
2019-05-12T15:56:05.785Z,9.40
2019-05-12T15:58:33.583Z,9.63
2019-05-12T16:01:04.644Z,9.33
2019-05-12T16:03:35.459Z,9.27
2019-05-12T16:06:10.203Z,9.47
2019-05-12T16:08:38.926Z,9.67
2019-05-12T16:11:09.686Z,9.47
2019-05-12T16:13:44.976Z,8.93
2019-05-12T16:16:14.171Z,9.57
2019-05-12T16:18:46.680Z,9.73
2019-05-12T16:21:17.850Z,8.90
2019-05-12T16:23:48.629Z,9.20
2019-05-12T16:26:19.393Z,9.17
2019-05-12T16:28:53.964Z,9.80
2019-05-12T16:31:23.717Z,9.63
2019-05-12T16:34:01.306Z,9.40
2019-05-12T16:36:27.325Z,9.90
2019-05-12T16:39:00.182Z,9.10
2019-05-12T16:41:30.811Z,9.67
2019-05-12T16:44:09.461Z,9.93
2019-05-12T16:46:34.407Z,9.00
2019-05-12T16:49:05.186Z,9.37
2019-05-12T16:51:36.067Z,8.57
2019-05-12T16:54:06.844Z,8.93
2019-05-12T16:56:37.619Z,8.93
2019-05-12T16:59:15.630Z,9.40
2019-05-12T17:01:43.752Z,9.33
2019-05-12T17:04:13.788Z,8.40
2019-05-12T17:06:47.055Z,12.93
2019-05-12T17:09:17.279Z,8.27
2019-05-12T17:12:04.927Z,8.30
2019-05-12T17:14:38.763Z,8.40
2019-05-12T17:17:10.564Z,8.47
2019-05-12T17:19:40.492Z,8.60
2019-05-12T17:22:13.427Z,8.87
2019-05-12T17:24:44.828Z,8.27
2019-05-12T17:27:24.087Z,8.60
2019-05-12T17:29:49.450Z,8.20
2019-05-12T17:32:20.267Z,8.73
2019-05-12T17:34:53.211Z,8.73
2019-05-12T17:37:23.940Z,8.60
2019-05-12T17:40:03.774Z,8.50
2019-05-12T17:42:34.573Z,8.50
2019-05-12T17:45:09.471Z,8.17
2019-05-12T17:47:38.142Z,7.80
2019-05-12T17:50:10.468Z,8.43
2019-05-12T17:52:41.514Z,7.90
2019-05-12T17:55:14.526Z,8.40
2019-05-12T17:57:50.388Z,8.20
2019-05-12T18:00:19.477Z,7.93
2019-05-12T18:02:54.877Z,7.60
2019-05-12T18:05:23.769Z,7.60
2019-05-12T18:07:55.522Z,7.40
2019-05-12T18:10:26.552Z,7.50
2019-05-12T18:12:57.345Z,7.53
2019-05-12T18:15:33.231Z,7.30
2019-05-12T18:18:00.905Z,7.63
2019-05-12T18:20:40.140Z,7.37
2019-05-12T18:23:04.531Z,7.90
2019-05-12T18:25:36.870Z,6.80
2019-05-12T18:28:07.881Z,6.73
2019-05-12T18:30:38.693Z,7.13
2019-05-12T18:33:09.724Z,7.00
2019-05-12T18:35:40.564Z,7.17
2019-05-12T18:38:18.105Z,7.30
2019-05-12T18:40:44.725Z,7.30
2019-05-12T18:43:15.643Z,7.90
2019-05-12T18:45:48.974Z,7.93
2019-05-12T18:48:22.343Z,7.80
2019-05-12T18:50:51.784Z,7.80
2019-05-12T18:53:27.907Z,7.80
2019-05-12T18:55:55.337Z,7.53
2019-05-12T18:58:30.584Z,7.90
2019-05-12T19:01:07.542Z,7.27
2019-05-12T19:03:47.880Z,7.50
2019-05-12T19:06:14.271Z,8.00
2019-05-12T19:08:45.831Z,7.57
2019-05-12T19:11:22.457Z,8.30
2019-05-12T19:13:52.309Z,8.40
2019-05-12T19:16:23.849Z,8.43
2019-05-12T19:18:55.800Z,8.00
2019-05-12T19:21:27.309Z,8.60
2019-05-12T19:23:58.040Z,9.00
2019-05-12T19:26:32.994Z,7.80
2019-05-12T19:29:04.075Z,8.33
2019-05-12T19:31:36.650Z,8.20
2019-05-12T19:34:18.332Z,8.47
2019-05-12T19:36:44.852Z,8.37
2019-05-12T19:39:14.079Z,8.20
2019-05-12T19:41:44.879Z,7.63
2019-05-12T19:44:20.055Z,7.80
2019-05-12T19:46:49.584Z,8.00
2019-05-12T19:49:26.137Z,8.57
2019-05-12T19:51:54.406Z,8.27
2019-05-12T19:54:29.695Z,9.07
2019-05-12T19:56:58.148Z,7.83
2019-05-12T19:59:28.921Z,8.10
2019-05-12T20:01:59.759Z,8.50
2019-05-12T20:04:33.855Z,8.27
2019-05-12T20:07:03.831Z,8.83
2019-05-12T20:09:34.622Z,8.30
2019-05-12T20:12:08.402Z,8.70
2019-05-12T20:14:38.256Z,8.70
2019-05-12T20:17:09.109Z,8.27
2019-05-12T20:19:40.710Z,8.40
2019-05-12T20:22:13.702Z,8.53
2019-05-12T20:24:44.522Z,8.13
2019-05-12T20:27:17.156Z,8.43
2019-05-12T20:29:48.042Z,8.17
2019-05-12T20:32:18.836Z,8.40
2019-05-12T20:34:54.520Z,8.60
2019-05-12T20:37:22.296Z,8.40
2019-05-12T20:39:59.699Z,8.33
2019-05-12T20:42:27.861Z,8.60
2019-05-12T20:45:02.560Z,9.10
2019-05-12T20:47:33.717Z,8.07
2019-05-12T20:50:05.210Z,8.27
2019-05-12T20:52:39.383Z,8.70
2019-05-12T20:55:08.828Z,9.07
2019-05-12T20:57:49.409Z,8.37
2019-05-12T21:00:14.131Z,8.37
2019-05-12T21:02:45.120Z,8.57
2019-05-12T21:05:19.941Z,8.40
2019-05-12T21:07:48.726Z,8.37
2019-05-12T21:10:24.676Z,8.70
2019-05-12T21:12:54.423Z,8.73
2019-05-12T21:15:27.469Z,9.97
2019-05-12T21:18:04.425Z,10.70
2019-05-12T21:20:33.690Z,8.70
2019-05-12T21:23:04.075Z,8.33
2019-05-12T21:25:34.851Z,9.30
2019-05-12T21:28:07.984Z,9.27
2019-05-12T21:30:42.317Z,8.20
2019-05-12T21:33:10.996Z,8.57
2019-05-12T21:35:45.756Z,9.00
2019-05-12T21:38:22.302Z,8.33
2019-05-12T21:40:49.564Z,8.63
2019-05-12T21:43:20.649Z,8.07
2019-05-12T21:45:53.157Z,8.53
2019-05-12T21:48:28.598Z,8.33
2019-05-12T21:50:56.894Z,8.20
2019-05-12T21:53:27.702Z,8.57
2019-05-12T21:56:03.859Z,8.40
2019-05-12T21:58:33.488Z,8.63
2019-05-12T22:01:07.733Z,8.87
2019-05-12T22:03:38.133Z,7.53
2019-05-12T22:06:19.099Z,8.77
2019-05-12T22:08:44.836Z,8.03
2019-05-12T22:11:15.604Z,8.23
2019-05-12T22:13:56.045Z,8.40
2019-05-12T22:16:20.860Z,9.00
2019-05-12T22:18:56.097Z,8.57
2019-05-12T22:21:24.855Z,8.90
2019-05-12T22:23:56.428Z,8.37
2019-05-12T22:26:30.637Z,8.50
2019-05-12T22:28:59.925Z,8.23
2019-05-12T22:31:33.256Z,7.97
2019-05-12T22:34:04.137Z,8.43
2019-05-12T22:36:35.126Z,8.03
2019-05-12T22:39:06.303Z,8.00
2019-05-12T22:41:41.388Z,8.13
2019-05-12T22:44:18.700Z,8.13
2019-05-12T22:46:43.641Z,8.33
2019-05-12T22:49:16.710Z,8.33
2019-05-12T22:51:47.270Z,8.20
2019-05-12T22:54:18.149Z,8.57
2019-05-12T22:56:49.742Z,8.20
2019-05-12T22:59:23.989Z,8.40
2019-05-12T23:01:54.418Z,7.90
2019-05-12T23:04:34.194Z,8.13
2019-05-12T23:06:57.909Z,7.50
2019-05-12T23:09:30.132Z,8.00
2019-05-12T23:12:01.309Z,8.20
2019-05-12T23:14:34.048Z,9.03
2019-05-12T23:17:06.093Z,8.00
2019-05-12T23:19:43.026Z,7.80
2019-05-12T23:22:10.801Z,8.30
2019-05-12T23:24:41.592Z,8.27
2019-05-12T23:27:13.637Z,8.50
2019-05-12T23:29:44.606Z,7.83
2019-05-12T23:32:24.135Z,9.80
2019-05-12T23:34:58.507Z,8.70
2019-05-12T23:37:30.233Z,8.33
2019-05-12T23:40:00.592Z,8.53
2019-05-12T23:42:34.189Z,8.03
2019-05-12T23:45:04.918Z,8.20
2019-05-12T23:47:35.703Z,8.10
2019-05-12T23:50:07.702Z,8.40
2019-05-12T23:52:38.473Z,7.87
2019-05-12T23:55:09.361Z,8.20
2019-05-12T23:57:40.126Z,8.30
